RJFR/KKJ METAR and TAF weather

Enter ICAO airport designator
Station Type Date Time Source
RJFR METAR 2021/07/28 19:00 UTC NOAA

RJFR 281900Z 33003KT 9999 FEW030 25/22 Q1002


Station Type Date Time Source
RJFR Decoded METAR 2021/07/28 19:00 UTC NOAA

Kitakyushu Airport, Japan (RJFR) 33-50N 130-57E 6M
Jul 28, 2021 - 03:00 PM EDT / 2021.07.28 1900 UTC
Wind: from the NNW (330 degrees) at 3 MPH (3 KT):0
Visibility: greater than 7 mile(s):0
Sky conditions: mostly clear
Temperature: 77 F (25 C)
Dew Point: 71 F (22 C)
Relative Humidity: 83%
Pressure (altimeter): 29.59 in. Hg (1002 hPa)
ob: RJFR 281900Z 33003KT 9999 FEW030 25/22 Q1002
cycle: 19

Station Type Date Time Source
RJFR TAF 2021/07/28 18:00 UTC NOAA

TAF RJFR 281707Z 2818/3000 35004KT 9999 FEW020

Example: see airport list